createdAt,value
2019-02-07T06:37:55.307Z,32.17
2019-02-07T06:40:47.095Z,45.80
2019-02-07T06:43:33.779Z,34.70
2019-02-07T06:46:20.582Z,33.80
2019-02-07T06:49:05.084Z,28.37
2019-02-07T06:52:14.061Z,36.55
2019-02-07T06:55:04.891Z,28.50
2019-02-07T06:57:52.947Z,26.27
2019-02-07T07:00:46.826Z,26.37
2019-02-07T07:03:33.322Z,27.23
2019-02-07T07:06:24.498Z,27.93
2019-02-07T07:09:11.415Z,26.97
2019-02-07T07:11:57.208Z,27.60
2019-02-07T07:14:47.041Z,26.77
2019-02-07T07:17:38.090Z,28.03
2019-02-07T07:20:29.850Z,26.77
2019-02-07T07:23:09.637Z,29.47
2019-02-07T07:25:57.599Z,28.77
2019-02-07T07:28:57.156Z,29.43
2019-02-07T07:31:54.498Z,27.73
2019-02-07T07:34:48.704Z,27.23
2019-02-07T07:37:48.623Z,30.00
2019-02-07T07:40:35.084Z,28.37
2019-02-07T07:43:32.149Z,30.43
2019-02-07T07:46:18.570Z,29.33
2019-02-07T07:49:00.420Z,28.80
2019-02-07T07:52:10.679Z,30.77
2019-02-07T07:54:58.996Z,29.50
2019-02-07T07:57:51.310Z,30.33
2019-02-07T08:00:54.720Z,29.43
2019-02-07T08:03:34.732Z,29.73
2019-02-07T08:06:28.874Z,29.67
2019-02-07T08:09:18.278Z,29.53
2019-02-07T08:12:04.579Z,29.37
2019-02-07T08:14:55.579Z,29.03
2019-02-07T08:17:46.886Z,28.27
2019-02-07T08:20:24.729Z,29.37
2019-02-07T08:23:08.695Z,29.13
2019-02-07T08:26:12.024Z,30.20
2019-02-07T08:29:03.100Z,31.27
2019-02-07T08:31:48.868Z,30.63
2019-02-07T08:34:45.967Z,30.47
2019-02-07T08:37:51.813Z,30.47
2019-02-07T08:40:43.086Z,29.97
2019-02-07T08:43:39.680Z,30.73
2019-02-07T08:46:31.034Z,32.23
2019-02-07T08:49:17.685Z,32.97
2019-02-07T08:52:18.193Z,34.23
2019-02-07T08:55:00.322Z,30.93
2019-02-07T08:57:42.522Z,33.70
2019-02-07T09:00:33.921Z,32.23
2019-02-07T09:03:12.081Z,29.97
2019-02-07T09:06:00.242Z,31.80
2019-02-07T09:08:46.608Z,32.70
2019-02-07T09:11:33.716Z,33.67
2019-02-07T09:14:24.686Z,33.33
2019-02-07T09:17:21.690Z,33.03
2019-02-07T09:20:08.160Z,34.17
2019-02-07T09:22:56.056Z,33.10
2019-02-07T09:25:49.870Z,34.40
2019-02-07T09:28:40.912Z,36.03
2019-02-07T09:31:27.382Z,35.03
2019-02-07T09:34:06.584Z,37.67
2019-02-07T09:36:53.398Z,35.17
2019-02-07T09:39:41.186Z,32.63
2019-02-07T09:42:27.025Z,34.73
2019-02-07T09:45:13.548Z,34.60
2019-02-07T09:48:03.385Z,34.73
2019-02-07T09:50:50.012Z,36.00
2019-02-07T09:53:40.966Z,34.93
2019-02-07T09:56:30.719Z,35.87
2019-02-07T09:59:30.764Z,33.73
2019-02-07T10:02:20.497Z,35.57
2019-02-07T10:05:14.277Z,38.47
2019-02-07T10:08:17.680Z,38.00
2019-02-07T10:10:55.972Z,37.90
2019-02-07T10:13:43.965Z,35.40
2019-02-07T10:16:42.048Z,37.00
2019-02-07T10:19:28.417Z,34.67
2019-02-07T10:22:14.272Z,35.57
2019-02-07T10:25:02.185Z,37.60
2019-02-07T10:27:50.286Z,35.57
2019-02-07T10:30:28.837Z,36.23
2019-02-07T10:33:16.243Z,34.47
2019-02-07T10:36:03.296Z,36.10
2019-02-07T10:39:03.982Z,35.13
2019-02-07T10:41:46.952Z,34.97
2019-02-07T10:44:37.933Z,36.23
2019-02-07T10:47:32.855Z,36.00
2019-02-07T10:50:19.722Z,35.83
2019-02-07T10:53:07.791Z,34.40
2019-02-07T10:55:49.538Z,34.60
2019-02-07T10:58:40.474Z,34.40
2019-02-07T11:01:31.998Z,34.90
2019-02-07T11:04:28.961Z,36.20
2019-02-07T11:07:13.443Z,37.07
2019-02-07T11:10:10.888Z,37.33
2019-02-07T11:12:57.321Z,39.53
2019-02-07T11:15:43.997Z,38.73
2019-02-07T11:18:30.837Z,41.17
2019-02-07T11:21:17.854Z,42.50
2019-02-07T11:24:15.001Z,43.03
2019-02-07T11:27:04.916Z,41.37
2019-02-07T11:29:43.888Z,40.30
2019-02-07T11:32:18.489Z,37.03
2019-02-07T11:35:09.274Z,39.43
2019-02-07T11:37:58.849Z,42.07
2019-02-07T11:40:50.198Z,43.47
2019-02-07T11:43:59.296Z,43.07
2019-02-07T11:46:53.349Z,42.80
2019-02-07T11:49:39.567Z,39.80
2019-02-07T11:52:42.571Z,40.60
2019-02-07T11:55:46.820Z,41.53
2019-02-07T11:58:37.693Z,42.37
2019-02-07T12:01:28.776Z,43.10
2019-02-07T12:04:25.690Z,42.13
2019-02-07T12:07:21.241Z,39.03
2019-02-07T12:10:08.287Z,39.53
2019-02-07T12:12:49.734Z,39.23
2019-02-07T12:15:32.934Z,42.07
2019-02-07T12:18:30.800Z,41.53
2019-02-07T12:21:17.752Z,39.80
2019-02-07T12:24:11.694Z,41.33
2019-02-07T12:26:58.348Z,38.27
2019-02-07T12:29:52.614Z,39.10
2019-02-07T12:32:42.341Z,42.27
2019-02-07T12:35:42.793Z,41.23
2019-02-07T12:38:43.401Z,43.40
2019-02-07T12:41:30.577Z,42.33
2019-02-07T12:44:08.829Z,42.13
2019-02-07T12:46:55.321Z,41.53
2019-02-07T12:49:36.653Z,42.87
2019-02-07T12:52:28.658Z,42.43
2019-02-07T12:55:13.440Z,42.30
2019-02-07T12:58:19.681Z,40.77
2019-02-07T13:01:16.863Z,42.23
2019-02-07T13:04:10.563Z,40.93
2019-02-07T13:07:06.752Z,41.10
2019-02-07T13:09:48.089Z,43.77
2019-02-07T13:12:31.429Z,42.30
2019-02-07T13:15:10.428Z,38.53
2019-02-07T13:17:59.919Z,41.07
2019-02-07T13:20:46.832Z,42.30
2019-02-07T13:23:33.643Z,45.47
2019-02-07T13:26:20.608Z,42.40
2019-02-07T13:29:07.370Z,40.60
2019-02-07T13:32:01.965Z,42.23
2019-02-07T13:34:55.069Z,41.80
2019-02-07T13:37:45.978Z,41.17
2019-02-07T13:40:42.822Z,41.40
2019-02-07T13:43:23.797Z,42.70
2019-02-07T13:46:32.827Z,43.50
2019-02-07T13:49:19.293Z,42.60
2019-02-07T13:52:16.135Z,43.47
2019-02-07T13:55:04.162Z,42.60
2019-02-07T13:58:10.132Z,41.30
2019-02-07T14:01:00.916Z,41.77
2019-02-07T14:03:47.549Z,41.17
2019-02-07T14:06:28.750Z,41.73
2019-02-07T14:09:09.305Z,38.97
2019-02-07T14:11:57.364Z,41.33
2019-02-07T14:14:54.433Z,40.77
2019-02-07T14:17:41.068Z,39.33
2019-02-07T14:20:28.216Z,39.33
2019-02-07T14:23:22.425Z,38.23
2019-02-07T14:26:08.446Z,34.83
2019-02-07T14:29:02.527Z,40.40
2019-02-07T14:31:49.018Z,38.73
2019-02-07T14:34:37.309Z,37.77
2019-02-07T14:37:28.556Z,37.87
2019-02-07T14:40:19.449Z,38.80
2019-02-07T14:42:54.013Z,39.93
2019-02-07T14:45:41.565Z,37.10
2019-02-07T14:48:22.428Z,32.70
2019-02-07T14:50:59.146Z,34.80
2019-02-07T14:53:28.733Z,36.43
2019-02-07T14:55:59.607Z,38.30
2019-02-07T14:58:28.756Z,39.40
2019-02-07T15:00:59.120Z,36.40
2019-02-07T15:03:31.241Z,37.00
2019-02-07T15:06:00.541Z,36.73
2019-02-07T15:08:32.845Z,37.17
2019-02-07T15:11:02.665Z,38.47
2019-02-07T15:13:37.576Z,39.40
2019-02-07T15:16:09.051Z,40.53
2019-02-07T15:18:41.301Z,36.87
2019-02-07T15:21:10.702Z,36.23
2019-02-07T15:23:39.896Z,37.77
2019-02-07T15:26:11.644Z,39.63
2019-02-07T15:28:40.814Z,40.33
2019-02-07T15:31:10.049Z,39.77
2019-02-07T15:33:39.275Z,37.83
2019-02-07T15:36:10.262Z,37.40
2019-02-07T15:38:39.350Z,35.73
2019-02-07T15:41:08.337Z,38.47
2019-02-07T15:43:37.866Z,36.40
2019-02-07T15:46:07.948Z,37.47
2019-02-07T15:48:37.009Z,38.50
2019-02-07T15:51:07.002Z,36.53
2019-02-07T15:53:38.889Z,36.57
2019-02-07T15:56:08.215Z,34.60
2019-02-07T15:59:01.725Z,34.63
2019-02-07T16:01:54.268Z,32.57
2019-02-07T16:04:30.604Z,34.00
2019-02-07T16:06:59.621Z,34.60
2019-02-07T16:09:28.975Z,35.47
2019-02-07T16:11:58.213Z,34.73
2019-02-07T16:14:28.418Z,35.97
2019-02-07T16:16:57.589Z,34.43
2019-02-07T16:19:30.555Z,35.43
2019-02-07T16:21:59.568Z,35.07
2019-02-07T16:24:29.191Z,36.00
2019-02-07T16:26:58.279Z,37.83
2019-02-07T16:29:31.751Z,39.13
2019-02-07T16:32:05.038Z,41.03
2019-02-07T16:34:34.229Z,43.63
2019-02-07T16:37:06.489Z,39.67
2019-02-07T16:39:38.669Z,40.63
2019-02-07T16:42:07.949Z,38.70
2019-02-07T16:44:47.179Z,39.77
2019-02-07T16:47:21.081Z,39.90
2019-02-07T16:49:50.105Z,43.13
2019-02-07T16:52:19.697Z,37.67
2019-02-07T16:54:52.027Z,35.23
2019-02-07T16:58:08.557Z,35.00
2019-02-07T17:17:46.062Z,39.57
2019-02-07T17:20:24.174Z,41.03
2019-02-07T17:23:18.470Z,40.57
2019-02-07T17:25:47.709Z,39.77
2019-02-07T17:29:05.342Z,41.00
2019-02-07T17:36:58.879Z,44.10
2019-02-07T18:00:01.388Z,39.77
2019-02-07T18:10:12.976Z,56.47
2019-02-07T18:12:38.716Z,43.40
2019-02-07T18:15:13.028Z,48.83
2019-02-07T18:17:46.015Z,45.60
2019-02-07T18:20:23.244Z,49.67
2019-02-07T18:23:09.233Z,58.43
2019-02-07T18:26:26.301Z,53.30
2019-02-07T18:28:58.951Z,48.90
2019-02-07T20:01:16.994Z,29.27
2019-02-07T21:47:29.127Z,27.37
2019-02-07T21:57:48.487Z,26.40
2019-02-07T23:05:30.410Z,16.43
